createdAt,value
2018-01-14T00:01:30.998Z,13.60
2018-01-14T00:07:34.499Z,12.63
2018-01-14T00:13:38.069Z,10.67
2018-01-14T00:19:42.332Z,11.43
2018-01-14T00:25:46.885Z,12.37
2018-01-14T00:31:50.413Z,11.33
2018-01-14T00:37:54.013Z,11.87
2018-01-14T00:43:58.471Z,13.03
2018-01-14T00:50:01.962Z,12.00
2018-01-14T00:56:06.197Z,12.53
2018-01-14T01:02:09.667Z,12.83
2018-01-14T01:08:13.150Z,12.47
2018-01-14T01:14:17.376Z,12.00
2018-01-14T01:20:20.873Z,12.13
2018-01-14T01:26:25.472Z,12.27
2018-01-14T01:32:29.058Z,13.03
2018-01-14T01:38:32.556Z,13.67
2018-01-14T01:44:36.803Z,12.73
2018-01-14T01:50:40.266Z,12.27
2018-01-14T01:56:43.746Z,12.67
2018-01-14T02:02:47.219Z,12.50
2018-01-14T02:08:50.705Z,12.03
2018-01-14T02:14:54.320Z,13.90
2018-01-14T02:20:58.649Z,12.77
2018-01-14T02:27:02.149Z,12.90
2018-01-14T02:33:05.671Z,12.17
2018-01-14T02:39:09.947Z,12.87
2018-01-14T02:45:14.192Z,13.37
2018-01-14T02:51:17.676Z,11.07
2018-01-14T02:57:21.210Z,11.97
2018-01-14T03:03:25.163Z,11.20
2018-01-14T03:09:28.698Z,11.53
2018-01-14T03:15:32.201Z,12.30
2018-01-14T03:21:36.468Z,12.77
2018-01-14T03:27:39.961Z,12.10
2018-01-14T03:33:43.500Z,11.90
2018-01-14T03:39:47.048Z,11.13
2018-01-14T03:45:51.336Z,11.13
2018-01-14T03:51:55.333Z,11.47
2018-01-14T03:57:58.936Z,10.90
2018-01-14T04:04:03.260Z,10.90
2018-01-14T04:10:06.761Z,10.27
2018-01-14T04:16:11.068Z,10.43
2018-01-14T04:22:14.586Z,9.77
2018-01-14T04:28:18.845Z,9.13
2018-01-14T04:34:22.435Z,9.47
2018-01-14T04:40:26.123Z,9.47
2018-01-14T04:46:29.861Z,9.33
2018-01-14T04:52:33.494Z,10.33
2018-01-14T04:58:37.743Z,10.20
2018-01-14T05:04:41.271Z,11.57
2018-01-14T05:10:44.888Z,9.97
2018-01-14T05:16:49.432Z,9.87
2018-01-14T05:22:52.944Z,11.23
2018-01-14T05:28:57.067Z,9.80
2018-01-14T05:35:00.782Z,9.80
2018-01-14T05:41:04.482Z,16.80
2018-01-14T05:56:53.313Z,12.10
2018-01-14T06:02:57.267Z,11.50
2018-01-14T06:09:01.516Z,12.40
2018-01-14T06:15:05.026Z,13.73
2018-01-14T06:21:09.298Z,14.80
2018-01-14T06:27:13.687Z,15.50
2018-01-14T06:33:17.272Z,14.37
2018-01-14T06:39:20.930Z,15.17
2018-01-14T06:45:24.557Z,15.57
2018-01-14T06:51:28.016Z,17.27
2018-01-14T06:57:31.533Z,16.30
2018-01-14T07:03:35.779Z,17.00
2018-01-14T07:09:39.334Z,16.70
2018-01-14T07:15:42.825Z,19.13
2018-01-14T07:21:47.048Z,17.00
2018-01-14T07:27:50.508Z,19.13
2018-01-14T07:33:54.882Z,20.90
2018-01-14T07:39:58.386Z,24.17
2018-01-14T07:46:01.878Z,26.47
2018-01-14T07:52:05.381Z,22.67
2018-01-14T07:58:09.638Z,21.67
2018-01-14T08:04:14.677Z,21.90
2018-01-14T08:10:18.393Z,26.03
2018-01-14T08:16:21.902Z,23.57
2018-01-14T08:22:25.594Z,23.37
2018-01-14T08:28:29.246Z,24.30
2018-01-14T08:34:32.867Z,21.27
2018-01-14T08:40:36.440Z,20.30
2018-01-14T08:46:40.029Z,21.47
2018-01-14T08:52:43.482Z,22.30
2018-01-14T08:58:46.947Z,21.10
2018-01-14T09:04:51.215Z,22.10
2018-01-14T09:10:55.609Z,23.30
2018-01-14T09:16:59.193Z,20.77
2018-01-14T09:23:02.890Z,20.60
2018-01-14T09:29:06.403Z,23.53
2018-01-14T09:35:09.879Z,23.10
2018-01-14T09:41:13.409Z,21.20
2018-01-14T09:47:16.896Z,21.33
2018-01-14T09:53:20.395Z,21.23
2018-01-14T09:59:24.031Z,21.67
2018-01-14T10:05:28.070Z,24.27
2018-01-14T10:11:31.588Z,22.40
2018-01-14T10:17:35.786Z,23.03
2018-01-14T10:23:39.536Z,23.30
2018-01-14T10:29:43.090Z,22.50
2018-01-14T10:35:46.731Z,23.37
2018-01-14T10:41:50.241Z,23.37
2018-01-14T10:47:53.876Z,23.90
2018-01-14T10:53:57.496Z,22.03
2018-01-14T11:00:01.111Z,23.37
2018-01-14T11:06:04.574Z,24.93
2018-01-14T11:12:08.789Z,22.77
2018-01-14T11:18:12.289Z,24.00
2018-01-14T11:24:15.752Z,24.17
2018-01-14T11:30:20.152Z,21.97
2018-01-14T11:36:23.761Z,22.80
2018-01-14T11:42:27.490Z,20.70
2018-01-14T11:48:31.039Z,21.87
2018-01-14T11:54:34.510Z,19.63
2018-01-14T12:00:37.950Z,19.80
2018-01-14T12:06:41.410Z,19.70
2018-01-14T12:12:44.950Z,20.87
2018-01-14T12:18:48.422Z,19.20
2018-01-14T12:24:51.885Z,18.50
2018-01-14T12:30:55.413Z,20.13
2018-01-14T12:36:59.048Z,19.20
2018-01-14T12:43:02.510Z,17.53
2018-01-14T12:49:05.965Z,19.77
2018-01-14T12:55:09.585Z,18.57
2018-01-14T13:01:13.114Z,16.87
2018-01-14T13:07:16.576Z,18.67
2018-01-14T13:13:20.109Z,18.60
2018-01-14T13:19:23.792Z,18.37
2018-01-14T13:25:27.565Z,17.57
2018-01-14T13:31:31.810Z,17.23
2018-01-14T13:37:35.290Z,15.47
2018-01-14T13:43:38.758Z,17.27
2018-01-14T13:49:42.985Z,18.10
2018-01-14T13:55:47.242Z,17.33
2018-01-14T14:01:50.715Z,18.53
2018-01-14T14:07:54.324Z,17.73
2018-01-14T14:13:58.585Z,19.53
2018-01-14T14:20:02.814Z,18.50
2018-01-14T14:26:06.307Z,19.07
2018-01-14T14:32:10.665Z,19.00
2018-01-14T14:38:14.121Z,19.40
2018-01-14T14:44:17.579Z,19.77
2018-01-14T14:50:21.094Z,19.67
2018-01-14T14:56:25.175Z,19.47
2018-01-14T15:02:28.670Z,17.73
2018-01-14T15:08:32.887Z,19.20
2018-01-14T15:14:36.615Z,27.80
2018-01-14T15:20:40.092Z,25.43
2018-01-14T15:26:43.571Z,22.03
2018-01-14T15:32:47.083Z,23.50
2018-01-14T15:38:50.535Z,19.67
2018-01-14T15:44:54.240Z,20.43
2018-01-14T15:50:57.771Z,21.97
2018-01-14T15:57:01.521Z,20.30
2018-01-14T16:03:05.062Z,21.40
2018-01-14T16:09:08.547Z,20.10
2018-01-14T16:15:11.998Z,23.33
2018-01-14T16:21:15.489Z,22.50
2018-01-14T16:27:19.065Z,20.03
2018-01-14T16:33:22.558Z,20.60
2018-01-14T16:39:26.277Z,21.57
2018-01-14T16:45:29.849Z,19.00
2018-01-14T16:51:33.319Z,21.90
2018-01-14T16:57:36.796Z,20.60
2018-01-14T17:03:40.249Z,21.37
2018-01-14T17:09:43.718Z,20.00
2018-01-14T17:15:47.174Z,22.30
2018-01-14T17:21:51.389Z,35.83
2018-01-14T17:27:54.854Z,22.63
2018-01-14T17:33:59.122Z,22.93
2018-01-14T17:40:02.643Z,23.40
2018-01-14T17:46:06.876Z,23.60
2018-01-14T17:52:10.447Z,23.43
2018-01-14T17:58:13.970Z,24.97
2018-01-14T18:04:17.455Z,25.43
2018-01-14T18:10:21.039Z,28.53
2018-01-14T18:16:25.468Z,20.23
2018-01-14T18:22:29.014Z,22.80
2018-01-14T18:28:32.798Z,21.70
2018-01-14T18:34:36.295Z,22.60
2018-01-14T18:40:39.760Z,25.90
2018-01-14T18:46:43.950Z,25.53
2018-01-14T18:52:47.414Z,23.63
2018-01-14T18:58:50.859Z,24.00
2018-01-14T19:04:54.960Z,21.30
2018-01-14T19:10:58.677Z,20.10
2018-01-14T19:17:02.173Z,20.73
2018-01-14T19:23:05.657Z,20.30
2018-01-14T19:29:09.134Z,20.10
2018-01-14T19:35:12.620Z,20.23
2018-01-14T19:41:16.123Z,21.03
2018-01-14T19:47:19.598Z,20.80
2018-01-14T19:53:23.112Z,19.50
2018-01-14T19:59:28.368Z,20.87
2018-01-14T20:05:32.017Z,18.83
2018-01-14T20:11:35.495Z,20.37
2018-01-14T20:17:39.000Z,20.50
2018-01-14T20:23:42.493Z,20.53
2018-01-14T20:29:45.958Z,19.63
2018-01-14T20:35:49.428Z,20.63
2018-01-14T20:41:52.945Z,20.87
2018-01-14T20:47:56.705Z,20.33
2018-01-14T20:54:00.301Z,19.23
2018-01-14T21:00:04.515Z,18.33
2018-01-14T21:06:08.092Z,18.73
2018-01-14T21:12:11.671Z,19.37
2018-01-14T21:18:15.124Z,17.63
2018-01-14T21:24:19.376Z,17.80
2018-01-14T21:30:24.387Z,19.07
2018-01-14T21:36:28.396Z,17.30
2018-01-14T21:42:32.719Z,18.50
2018-01-14T21:48:36.190Z,18.00
2018-01-14T21:54:40.701Z,17.50
2018-01-14T22:00:44.209Z,17.83
2018-01-14T22:06:47.695Z,17.47
2018-01-14T22:12:51.190Z,18.00
2018-01-14T22:18:54.777Z,16.70
2018-01-14T22:24:58.739Z,19.20
2018-01-14T22:31:03.045Z,16.07
2018-01-14T22:37:06.534Z,15.73
2018-01-14T22:43:10.106Z,17.70
2018-01-14T22:49:13.628Z,17.40
2018-01-14T22:55:17.133Z,16.00
2018-01-14T23:01:20.656Z,17.27
2018-01-14T23:07:24.293Z,15.77
2018-01-14T23:13:27.926Z,14.70
2018-01-14T23:26:01.545Z,14.83
2018-01-14T23:32:05.036Z,14.23
2018-01-14T23:38:08.502Z,12.70
2018-01-14T23:44:11.985Z,11.30
2018-01-14T23:50:15.455Z,10.40
2018-01-14T23:56:19.096Z,10.60
